Аэропорт: Шымкент. Шымкент

ICAO: UAII

METAR:
2024-04-22 22:00:00
UAII 222200Z 12004MPS 9999 SCT050CB 16/12 Q1013 NOSIG RMK QFE725/0966
TAF:
2024-04-22 17:08:00
TAF UAII 221708Z 2218/2318 13003G08MPS 7000 SCT040CB TX27/2309Z TN14/2301Z 
  TEMPO 2218/2303 18005MPS 
  FM230300 27003G08MPS 9999 SCT040 
  TEMPO 2303/2314 21007G12MPS 3100 -TSRA BKN033CB 
  TEMPO 2314/2318 18005G11MPS TS BKN040CB